Change the Weather History Date:

Friday, February 1, 2013

  Actual Average (KEFC) Record (KEFC)
Temperature  
Mean Temperature 32 °F -  
Max Temperature 37 °F 34 °F 68 °F (1992)
Min Temperature 26 °F 9 °F -22 °F (1956)
Degree Days  
Heating Degree Days 34    
Moisture  
Dew Point 28 °F    
Average Humidity 76    
Maximum Humidity 100    
Minimum Humidity 64    
Precipitation  
Precipitation 0.13 in - - ()
Sea Level Pressure  
Sea Level Pressure 29.97 in    
Wind  
Wind Speed 13 mph (West)    
Max Wind Speed 24 mph    
Max Gust Speed 30 mph    
Visibility 10 miles    
Events Rain , Snow    
Averages and records for this station are not official NWS values.
T = Trace of Precipitation, MM = Missing Value Source: NWS Daily Summary

Daily Weather History Graph

Daily Weather History Graph

Search for Another Location

Airport or City:

Trip Planner

Search our weather history database for the weather conditions in past years. The results will help you decide how hot, cold, wet, or windy it might be!

Date:

Astronomy

Feb. 01, 2013 Rise Set
Actual Time 8:13 AM CST 6:04 PM CST
Civil Twilight 7:42 AM CST 6:35 PM CST
Nautical Twilight 7:07 AM CST 7:10 PM CST
Astronomical Twilight 6:33 AM CST 7:44 PM CST
Moon No Moon Rise 10:32 AM CST (2/1)
Length of Visible Light 10h 53m
Length of Day
9h 51m
Waning Gibbous, 70% of the Moon is Illuminated
Feb 1
Waning Gibbous
Feb 3
Last Quarter
Feb 10
New
Feb 17
First Quarter
Feb 25
Full

Hourly Weather History & Observations

Time (CST) Temp. Windchill Dew Point Humidity Pressure Visibility Wind Dir Wind Speed Gust Speed Precip Events Conditions
12:15 AM 26.6 °F 20.0 °F 19.4 °F 74% 29.97 in 10.0 mi West 5.8 mph - N/A   Overcast
12:35 AM 32.0 °F 23.6 °F 21.2 °F 64% 29.96 in 10.0 mi West 10.4 mph - N/A   Overcast
12:55 AM 32.0 °F 23.0 °F 23.0 °F 69% 29.96 in 10.0 mi West 11.5 mph - N/A   Overcast
1:15 AM 32.0 °F 24.2 °F 23.0 °F 69% 29.96 in 10.0 mi West 9.2 mph - N/A   Overcast
1:35 AM 32.0 °F 23.6 °F 23.0 °F 69% 29.96 in 10.0 mi West 10.4 mph - N/A   Overcast
1:55 AM 32.0 °F 24.2 °F 24.8 °F 75% 29.95 in 10.0 mi West 9.2 mph 16.1 mph N/A   Overcast
2:15 AM 33.8 °F 24.8 °F 24.8 °F 70% 29.95 in 10.0 mi West 12.7 mph - N/A   Overcast
2:35 AM 33.8 °F 25.3 °F 24.8 °F 70% 29.95 in 10.0 mi West 11.5 mph - N/A   Overcast
2:55 AM 35.6 °F 28.6 °F 26.6 °F 70% 29.95 in 10.0 mi West 9.2 mph - N/A   Overcast
3:15 AM 35.6 °F 27.5 °F 26.6 °F 70% 29.95 in 10.0 mi West 11.5 mph - N/A   Overcast
3:35 AM 35.6 °F 26.6 °F 26.6 °F 70% 29.94 in 10.0 mi West 13.8 mph 18.4 mph N/A   Overcast
3:55 AM 35.6 °F 25.9 °F 26.6 °F 70% 29.93 in 10.0 mi WSW 16.1 mph 23.0 mph N/A   Overcast
4:15 AM 35.6 °F 25.9 °F 26.6 °F 70% 29.92 in 10.0 mi WSW 16.1 mph 23.0 mph N/A   Overcast
4:35 AM 35.6 °F 25.9 °F 26.6 °F 70% 29.92 in 10.0 mi WSW 16.1 mph 20.7 mph N/A   Overcast
4:55 AM 35.6 °F 26.2 °F 26.6 °F 70% 29.91 in 10.0 mi WSW 15.0 mph 20.7 mph N/A   Mostly Cloudy
5:15 AM 35.6 °F 26.2 °F 26.6 °F 70% 29.92 in 10.0 mi West 15.0 mph - N/A   Mostly Cloudy
5:35 AM 35.6 °F 26.6 °F 26.6 °F 70% 29.92 in 10.0 mi West 13.8 mph - N/A   Mostly Cloudy
5:55 AM 35.6 °F 27.5 °F 26.6 °F 70% 29.91 in 10.0 mi WSW 11.5 mph - N/A   Overcast
6:15 AM 35.6 °F 26.2 °F 26.6 °F 70% 29.91 in 10.0 mi West 15.0 mph 21.9 mph N/A   Mostly Cloudy
6:35 AM 35.6 °F 26.6 °F 28.4 °F 75% 29.91 in 10.0 mi West 13.8 mph 19.6 mph N/A   Overcast
6:55 AM 37.4 °F 28.2 °F 28.4 °F 70% 29.91 in 10.0 mi West 16.1 mph 21.9 mph N/A   Overcast
7:15 AM 37.4 °F 28.5 °F 28.4 °F 70% 29.91 in 10.0 mi West 15.0 mph 20.7 mph N/A   Overcast
7:35 AM 37.4 °F 27.8 °F 28.4 °F 70% 29.92 in 10.0 mi West 17.3 mph 24.2 mph N/A   Overcast
7:55 AM 37.4 °F 27.5 °F 28.4 °F 70% 29.91 in 10.0 mi West 18.4 mph 26.5 mph N/A   Overcast
8:15 AM 37.4 °F 27.5 °F 28.4 °F 70% 29.91 in 10.0 mi West 18.4 mph 25.3 mph N/A   Overcast
8:35 AM 37.4 °F 28.2 °F 28.4 °F 70% 29.92 in 10.0 mi West 16.1 mph 25.3 mph N/A   Overcast
8:55 AM 35.6 °F 25.9 °F 28.4 °F 75% 29.92 in 10.0 mi West 16.1 mph 24.2 mph N/A   Overcast
9:15 AM 35.6 °F 26.2 °F 30.2 °F 81% 29.93 in 10.0 mi West 15.0 mph 21.9 mph N/A   Overcast
9:35 AM 37.4 °F 28.2 °F 30.2 °F 75% 29.93 in 10.0 mi West 16.1 mph 24.2 mph N/A   Overcast
9:55 AM 37.4 °F 27.2 °F 30.2 °F 75% 29.93 in 10.0 mi West 19.6 mph 23.0 mph N/A   Mostly Cloudy
10:15 AM 37.4 °F 28.2 °F 30.2 °F 75% 29.92 in 10.0 mi West 16.1 mph 26.5 mph N/A   Mostly Cloudy
10:35 AM 37.4 °F 28.9 °F 28.4 °F 70% 29.92 in 10.0 mi WNW 13.8 mph 20.7 mph N/A   Overcast
10:55 AM 37.4 °F 27.2 °F 28.4 °F 70% 29.93 in 10.0 mi WNW 19.6 mph 26.5 mph N/A   Mostly Cloudy
11:15 AM 37.4 °F 27.2 °F 28.4 °F 70% 29.93 in 10.0 mi WNW 19.6 mph 25.3 mph N/A   Scattered Clouds
11:35 AM 37.4 °F 27.5 °F 28.4 °F 70% 29.94 in 10.0 mi WNW 18.4 mph 28.8 mph N/A   Mostly Cloudy
11:55 AM 37.4 °F 26.4 °F 30.2 °F 75% 29.94 in 10.0 mi West 23.0 mph 29.9 mph N/A   Mostly Cloudy
12:15 PM 37.4 °F 26.6 °F 30.2 °F 75% 29.94 in 10.0 mi WNW 21.9 mph 29.9 mph N/A   Mostly Cloudy
12:35 PM 37.4 °F 26.9 °F 30.2 °F 75% 29.94 in 10.0 mi West 20.7 mph 28.8 mph N/A   Mostly Cloudy
12:55 PM 35.6 °F 23.7 °F 30.2 °F 81% 29.95 in 5.0 mi WNW 24.2 mph 28.8 mph N/A Rain Light Rain
1:15 PM 35.6 °F 24.8 °F 32.0 °F 87% 29.95 in 4.0 mi WNW 19.6 mph 24.2 mph 0.01 in Rain Light Rain
1:35 PM 35.6 °F 26.6 °F 32.0 °F 87% 29.96 in 8.0 mi WNW 13.8 mph 19.6 mph 0.03 in   Mostly Cloudy
1:55 PM 32.0 °F 20.8 °F 32.0 °F 100% 29.96 in 0.8 mi NW 17.3 mph 26.5 mph 0.10 in Snow Light Snow
2:15 PM 32.0 °F 20.8 °F 32.0 °F 100% 29.97 in 1.8 mi NNW 17.3 mph 27.6 mph 0.01 in Snow Light Snow
2:35 PM 32.0 °F 22.5 °F 32.0 °F 100% 29.97 in 3.0 mi NW 12.7 mph 24.2 mph 0.03 in Snow Light Snow
2:55 PM 32.0 °F 23.6 °F 32.0 °F 100% 29.97 in 10.0 mi WNW 10.4 mph 18.4 mph 0.03 in   Partly Cloudy
3:15 PM 32.0 °F 21.6 °F 32.0 °F 100% 29.98 in 9.0 mi NW 15.0 mph - N/A   Partly Cloudy
3:35 PM 32.0 °F 22.5 °F 32.0 °F 100% 29.99 in 10.0 mi WNW 12.7 mph 17.3 mph N/A Rain Light Rain
3:55 PM 33.8 °F 25.3 °F 32.0 °F 93% 29.99 in 10.0 mi West 11.5 mph - N/A   Mostly Cloudy
4:15 PM 33.8 °F 26.4 °F 32.0 °F 93% 29.99 in 10.0 mi West 9.2 mph - N/A   Overcast
4:35 PM 35.6 °F 27.1 °F 32.0 °F 87% 29.99 in 10.0 mi WNW 12.7 mph - N/A   Overcast
4:55 PM 35.6 °F 27.5 °F 30.2 °F 81% 30.00 in 10.0 mi WNW 11.5 mph 18.4 mph N/A   Overcast
5:15 PM 35.6 °F 26.2 °F 28.4 °F 75% 30.00 in 10.0 mi WNW 15.0 mph 25.3 mph N/A   Mostly Cloudy
5:35 PM 35.6 °F 26.2 °F 30.2 °F 81% 30.00 in 10.0 mi WNW 15.0 mph 21.9 mph N/A   Mostly Cloudy
5:55 PM 33.8 °F 23.9 °F 32.0 °F 93% 30.02 in 10.0 mi West 15.0 mph - N/A   Overcast
6:15 PM 35.6 °F 25.9 °F 32.0 °F 87% 30.02 in 10.0 mi West 16.1 mph 20.7 mph N/A   Mostly Cloudy
6:35 PM 35.6 °F 26.2 °F 30.2 °F 81% 30.02 in 10.0 mi West 15.0 mph - N/A   Overcast
6:55 PM 33.8 °F 24.3 °F 30.2 °F 87% 30.03 in 10.0 mi West 13.8 mph 19.6 mph N/A   Overcast
7:35 PM 35.6 °F 26.6 °F 28.4 °F 75% 30.03 in 10.0 mi West 13.8 mph 18.4 mph N/A   Overcast
7:55 PM 35.6 °F 26.6 °F 26.6 °F 70% 30.03 in 10.0 mi West 13.8 mph - N/A   Overcast
8:15 PM 35.6 °F 26.6 °F 26.6 °F 70% 30.03 in 10.0 mi West 13.8 mph 18.4 mph N/A   Overcast
8:35 PM 35.6 °F 27.5 °F 26.6 °F 70% 30.04 in 10.0 mi West 11.5 mph - N/A   Overcast
8:55 PM 35.6 °F 28.0 °F 24.8 °F 65% 30.04 in 10.0 mi West 10.4 mph - N/A   Overcast
9:15 PM 35.6 °F 27.1 °F 24.8 °F 65% 30.04 in 10.0 mi West 12.7 mph 19.6 mph N/A   Overcast
9:35 PM 35.6 °F 27.1 °F 24.8 °F 65% 30.05 in 10.0 mi West 12.7 mph - N/A   Overcast
9:55 PM 35.6 °F 25.9 °F 24.8 °F 65% 30.05 in 10.0 mi West 16.1 mph 21.9 mph N/A   Overcast
10:15 PM 35.6 °F 25.5 °F 26.6 °F 70% 30.06 in 10.0 mi West 17.3 mph 20.7 mph N/A   Overcast
10:35 PM 35.6 °F 25.9 °F 26.6 °F 70% 30.07 in 10.0 mi West 16.1 mph 19.6 mph N/A   Overcast
10:55 PM 35.6 °F 26.6 °F 26.6 °F 70% 30.07 in 10.0 mi West 13.8 mph 19.6 mph N/A   Overcast
11:35 PM 35.6 °F 24.8 °F 28.4 °F 75% 30.08 in 10.0 mi West 19.6 mph 28.8 mph N/A   Overcast
11:55 PM 33.8 °F 23.2 °F 28.4 °F 81% 30.09 in 10.0 mi West 17.3 mph 20.7 mph N/A   Overcast